sensor_id;sensor_type;location;lat;lon;timestamp;P1;durP1;ratioP1;P2;durP2;ratioP2
5702;SDS011;2876;51.738;10.050;2023-07-16T00:02:37;4.63;;;4.10;;
5702;SDS011;2876;51.738;10.050;2023-07-16T00:08:40;6.37;;;4.33;;
5702;SDS011;2876;51.738;10.050;2023-07-16T00:14:42;6.97;;;4.13;;
5702;SDS011;2876;51.738;10.050;2023-07-16T00:20:44;15.77;;;4.70;;
5702;SDS011;2876;51.738;10.050;2023-07-16T00:26:46;13.90;;;4.50;;
5702;SDS011;2876;51.738;10.050;2023-07-16T00:32:47;9.57;;;4.30;;
5702;SDS011;2876;51.738;10.050;2023-07-16T00:38:50;4.27;;;3.87;;
5702;SDS011;2876;51.738;10.050;2023-07-16T00:44:51;6.30;;;3.73;;
5702;SDS011;2876;51.738;10.050;2023-07-16T00:50:53;11.13;;;4.50;;
5702;SDS011;2876;51.738;10.050;2023-07-16T00:56:56;5.00;;;4.00;;
5702;SDS011;2876;51.738;10.050;2023-07-16T01:03:00;6.03;;;4.10;;
5702;SDS011;2876;51.738;10.050;2023-07-16T01:15:22;7.20;;;4.00;;
5702;SDS011;2876;51.738;10.050;2023-07-16T01:21:24;13.43;;;4.40;;
5702;SDS011;2876;51.738;10.050;2023-07-16T01:34:37;6.10;;;3.67;;
5702;SDS011;2876;51.738;10.050;2023-07-16T01:40:40;7.97;;;3.40;;
5702;SDS011;2876;51.738;10.050;2023-07-16T01:46:42;4.93;;;3.23;;
5702;SDS011;2876;51.738;10.050;2023-07-16T01:52:44;5.17;;;2.90;;
5702;SDS011;2876;51.738;10.050;2023-07-16T01:58:46;3.43;;;3.00;;
5702;SDS011;2876;51.738;10.050;2023-07-16T02:04:48;3.73;;;2.90;;
5702;SDS011;2876;51.738;10.050;2023-07-16T02:10:50;7.00;;;3.50;;
5702;SDS011;2876;51.738;10.050;2023-07-16T02:16:52;4.63;;;3.63;;
5702;SDS011;2876;51.738;10.050;2023-07-16T02:22:54;3.87;;;2.93;;
5702;SDS011;2876;51.738;10.050;2023-07-16T02:28:56;4.03;;;3.23;;
5702;SDS011;2876;51.738;10.050;2023-07-16T02:35:00;3.67;;;3.27;;
5702;SDS011;2876;51.738;10.050;2023-07-16T02:41:04;9.27;;;2.90;;
5702;SDS011;2876;51.738;10.050;2023-07-16T02:47:06;4.93;;;2.90;;
5702;SDS011;2876;51.738;10.050;2023-07-16T02:53:08;3.40;;;3.10;;
5702;SDS011;2876;51.738;10.050;2023-07-16T02:59:11;5.10;;;2.60;;
5702;SDS011;2876;51.738;10.050;2023-07-16T03:05:13;7.70;;;2.90;;
5702;SDS011;2876;51.738;10.050;2023-07-16T03:11:15;2.80;;;2.53;;
5702;SDS011;2876;51.738;10.050;2023-07-16T03:17:17;7.23;;;2.83;;
5702;SDS011;2876;51.738;10.050;2023-07-16T03:23:19;6.60;;;2.50;;
5702;SDS011;2876;51.738;10.050;2023-07-16T03:29:21;3.30;;;3.00;;
5702;SDS011;2876;51.738;10.050;2023-07-16T03:35:23;6.33;;;2.93;;
5702;SDS011;2876;51.738;10.050;2023-07-16T03:41:26;3.67;;;2.70;;
5702;SDS011;2876;51.738;10.050;2023-07-16T03:47:28;7.70;;;2.93;;
5702;SDS011;2876;51.738;10.050;2023-07-16T03:53:30;4.60;;;3.27;;
5702;SDS011;2876;51.738;10.050;2023-07-16T03:59:32;4.23;;;3.10;;
5702;SDS011;2876;51.738;10.050;2023-07-16T04:05:34;3.40;;;2.80;;
5702;SDS011;2876;51.738;10.050;2023-07-16T04:11:36;3.93;;;3.43;;
5702;SDS011;2876;51.738;10.050;2023-07-16T04:17:38;3.53;;;3.13;;
5702;SDS011;2876;51.738;10.050;2023-07-16T04:23:40;4.47;;;3.10;;
5702;SDS011;2876;51.738;10.050;2023-07-16T04:29:42;7.10;;;2.90;;
5702;SDS011;2876;51.738;10.050;2023-07-16T04:35:44;4.90;;;2.70;;
5702;SDS011;2876;51.738;10.050;2023-07-16T04:41:46;4.10;;;2.93;;
5702;SDS011;2876;51.738;10.050;2023-07-16T04:47:48;4.77;;;2.70;;
5702;SDS011;2876;51.738;10.050;2023-07-16T04:53:50;10.17;;;2.43;;
5702;SDS011;2876;51.738;10.050;2023-07-16T04:59:53;5.37;;;2.37;;
5702;SDS011;2876;51.738;10.050;2023-07-16T05:05:55;5.53;;;2.60;;
5702;SDS011;2876;51.738;10.050;2023-07-16T05:11:57;5.37;;;2.53;;
5702;SDS011;2876;51.738;10.050;2023-07-16T05:17:59;4.60;;;2.20;;
5702;SDS011;2876;51.738;10.050;2023-07-16T05:24:01;4.03;;;1.90;;
5702;SDS011;2876;51.738;10.050;2023-07-16T05:30:04;7.07;;;2.37;;
5702;SDS011;2876;51.738;10.050;2023-07-16T05:36:06;4.77;;;2.13;;
5702;SDS011;2876;51.738;10.050;2023-07-16T05:42:09;6.40;;;2.07;;
5702;SDS011;2876;51.738;10.050;2023-07-16T05:48:10;5.03;;;1.93;;
5702;SDS011;2876;51.738;10.050;2023-07-16T05:54:13;7.60;;;2.13;;
5702;SDS011;2876;51.738;10.050;2023-07-16T06:00:15;4.63;;;2.63;;
5702;SDS011;2876;51.738;10.050;2023-07-16T06:06:17;2.90;;;1.70;;
5702;SDS011;2876;51.738;10.050;2023-07-16T06:12:19;3.83;;;2.00;;
5702;SDS011;2876;51.738;10.050;2023-07-16T06:18:21;3.30;;;1.80;;
5702;SDS011;2876;51.738;10.050;2023-07-16T06:24:23;2.37;;;1.90;;
5702;SDS011;2876;51.738;10.050;2023-07-16T06:30:25;4.20;;;1.97;;
5702;SDS011;2876;51.738;10.050;2023-07-16T06:36:27;3.87;;;2.23;;
5702;SDS011;2876;51.738;10.050;2023-07-16T06:42:29;5.17;;;1.90;;
5702;SDS011;2876;51.738;10.050;2023-07-16T06:48:31;3.33;;;1.90;;
5702;SDS011;2876;51.738;10.050;2023-07-16T06:54:33;3.30;;;2.00;;
5702;SDS011;2876;51.738;10.050;2023-07-16T07:00:35;3.00;;;2.13;;
5702;SDS011;2876;51.738;10.050;2023-07-16T07:06:37;2.07;;;1.60;;
5702;SDS011;2876;51.738;10.050;2023-07-16T07:12:39;5.10;;;1.97;;
5702;SDS011;2876;51.738;10.050;2023-07-16T07:18:41;4.80;;;2.17;;
5702;SDS011;2876;51.738;10.050;2023-07-16T07:24:44;2.63;;;1.60;;
5702;SDS011;2876;51.738;10.050;2023-07-16T07:30:46;2.27;;;1.17;;
5702;SDS011;2876;51.738;10.050;2023-07-16T07:36:48;4.67;;;1.70;;
5702;SDS011;2876;51.738;10.050;2023-07-16T07:42:50;5.30;;;2.03;;
5702;SDS011;2876;51.738;10.050;2023-07-16T07:48:52;5.87;;;2.10;;
5702;SDS011;2876;51.738;10.050;2023-07-16T07:54:55;3.50;;;1.80;;
5702;SDS011;2876;51.738;10.050;2023-07-16T08:01:02;3.73;;;1.93;;
5702;SDS011;2876;51.738;10.050;2023-07-16T08:07:08;4.90;;;1.80;;
5702;SDS011;2876;51.738;10.050;2023-07-16T08:13:10;7.97;;;2.40;;
5702;SDS011;2876;51.738;10.050;2023-07-16T08:19:12;4.93;;;2.13;;
5702;SDS011;2876;51.738;10.050;2023-07-16T08:25:14;5.00;;;2.00;;
5702;SDS011;2876;51.738;10.050;2023-07-16T08:31:16;3.57;;;2.10;;
5702;SDS011;2876;51.738;10.050;2023-07-16T08:37:18;6.60;;;2.13;;
5702;SDS011;2876;51.738;10.050;2023-07-16T08:43:20;2.50;;;1.87;;
5702;SDS011;2876;51.738;10.050;2023-07-16T08:49:22;7.60;;;1.90;;
5702;SDS011;2876;51.738;10.050;2023-07-16T08:55:26;4.47;;;1.70;;
5702;SDS011;2876;51.738;10.050;2023-07-16T09:01:28;11.60;;;2.50;;
5702;SDS011;2876;51.738;10.050;2023-07-16T09:07:30;2.13;;;1.90;;
5702;SDS011;2876;51.738;10.050;2023-07-16T09:13:32;2.67;;;1.80;;
5702;SDS011;2876;51.738;10.050;2023-07-16T09:19:34;3.87;;;2.30;;
5702;SDS011;2876;51.738;10.050;2023-07-16T09:25:37;3.40;;;1.93;;
5702;SDS011;2876;51.738;10.050;2023-07-16T09:31:54;3.13;;;2.33;;
5702;SDS011;2876;51.738;10.050;2023-07-16T09:38:09;2.83;;;1.70;;
5702;SDS011;2876;51.738;10.050;2023-07-16T09:44:11;2.83;;;1.87;;
5702;SDS011;2876;51.738;10.050;2023-07-16T09:50:14;4.00;;;2.00;;
5702;SDS011;2876;51.738;10.050;2023-07-16T09:56:16;4.13;;;1.80;;
5702;SDS011;2876;51.738;10.050;2023-07-16T10:02:21;2.40;;;1.90;;
5702;SDS011;2876;51.738;10.050;2023-07-16T10:08:23;2.33;;;2.07;;
5702;SDS011;2876;51.738;10.050;2023-07-16T10:14:25;3.03;;;1.90;;
5702;SDS011;2876;51.738;10.050;2023-07-16T10:20:34;3.63;;;2.27;;
5702;SDS011;2876;51.738;10.050;2023-07-16T10:26:43;2.67;;;2.20;;
5702;SDS011;2876;51.738;10.050;2023-07-16T10:32:45;5.70;;;2.60;;
5702;SDS011;2876;51.738;10.050;2023-07-16T10:38:47;4.80;;;2.33;;
5702;SDS011;2876;51.738;10.050;2023-07-16T10:44:50;4.37;;;2.30;;
5702;SDS011;2876;51.738;10.050;2023-07-16T10:50:54;5.17;;;2.60;;
5702;SDS011;2876;51.738;10.050;2023-07-16T10:56:56;3.87;;;2.47;;
5702;SDS011;2876;51.738;10.050;2023-07-16T11:02:58;7.73;;;3.20;;
5702;SDS011;2876;51.738;10.050;2023-07-16T11:09:07;6.30;;;2.80;;
5702;SDS011;2876;51.738;10.050;2023-07-16T11:15:12;4.10;;;2.60;;
5702;SDS011;2876;51.738;10.050;2023-07-16T11:21:14;4.30;;;2.53;;
5702;SDS011;2876;51.738;10.050;2023-07-16T11:33:34;4.60;;;2.60;;
5702;SDS011;2876;51.738;10.050;2023-07-16T11:39:37;4.83;;;2.70;;
5702;SDS011;2876;51.738;10.050;2023-07-16T11:45:39;5.43;;;2.97;;
5702;SDS011;2876;51.738;10.050;2023-07-16T11:51:41;5.10;;;3.10;;
5702;SDS011;2876;51.738;10.050;2023-07-16T11:57:45;3.30;;;2.43;;
5702;SDS011;2876;51.738;10.050;2023-07-16T12:03:47;3.63;;;2.90;;
5702;SDS011;2876;51.738;10.050;2023-07-16T12:09:49;5.73;;;2.27;;
5702;SDS011;2876;51.738;10.050;2023-07-16T12:15:51;4.43;;;2.20;;
5702;SDS011;2876;51.738;10.050;2023-07-16T12:21:53;4.80;;;2.60;;
5702;SDS011;2876;51.738;10.050;2023-07-16T12:27:57;4.00;;;2.60;;
5702;SDS011;2876;51.738;10.050;2023-07-16T12:34:03;5.17;;;2.80;;
5702;SDS011;2876;51.738;10.050;2023-07-16T12:40:05;6.70;;;2.70;;
5702;SDS011;2876;51.738;10.050;2023-07-16T12:46:08;3.93;;;2.60;;
5702;SDS011;2876;51.738;10.050;2023-07-16T12:52:10;4.00;;;2.60;;
5702;SDS011;2876;51.738;10.050;2023-07-16T12:58:12;3.90;;;2.40;;
5702;SDS011;2876;51.738;10.050;2023-07-16T13:04:14;7.27;;;2.90;;
5702;SDS011;2876;51.738;10.050;2023-07-16T13:10:16;4.03;;;2.60;;
5702;SDS011;2876;51.738;10.050;2023-07-16T13:16:24;9.27;;;3.33;;
5702;SDS011;2876;51.738;10.050;2023-07-16T13:22:26;5.53;;;2.97;;
5702;SDS011;2876;51.738;10.050;2023-07-16T13:28:28;4.23;;;2.87;;
5702;SDS011;2876;51.738;10.050;2023-07-16T13:34:30;2.90;;;2.53;;
5702;SDS011;2876;51.738;10.050;2023-07-16T13:40:32;5.27;;;2.50;;
5702;SDS011;2876;51.738;10.050;2023-07-16T13:46:34;3.70;;;2.87;;
5702;SDS011;2876;51.738;10.050;2023-07-16T13:52:39;3.20;;;2.53;;
5702;SDS011;2876;51.738;10.050;2023-07-16T13:58:40;3.63;;;3.00;;
5702;SDS011;2876;51.738;10.050;2023-07-16T14:04:42;4.33;;;2.63;;
5702;SDS011;2876;51.738;10.050;2023-07-16T14:10:45;4.10;;;2.80;;
5702;SDS011;2876;51.738;10.050;2023-07-16T14:16:47;4.53;;;2.40;;
5702;SDS011;2876;51.738;10.050;2023-07-16T14:22:49;4.27;;;2.37;;
5702;SDS011;2876;51.738;10.050;2023-07-16T14:28:51;5.50;;;2.90;;
5702;SDS011;2876;51.738;10.050;2023-07-16T14:34:53;6.23;;;2.67;;
5702;SDS011;2876;51.738;10.050;2023-07-16T14:40:55;3.20;;;2.67;;
5702;SDS011;2876;51.738;10.050;2023-07-16T14:46:57;3.50;;;2.50;;
5702;SDS011;2876;51.738;10.050;2023-07-16T14:52:59;3.77;;;2.80;;
5702;SDS011;2876;51.738;10.050;2023-07-16T14:59:01;3.80;;;2.90;;
5702;SDS011;2876;51.738;10.050;2023-07-16T15:05:03;3.60;;;2.83;;
5702;SDS011;2876;51.738;10.050;2023-07-16T15:11:06;5.20;;;3.30;;
5702;SDS011;2876;51.738;10.050;2023-07-16T15:17:08;2.90;;;2.50;;
5702;SDS011;2876;51.738;10.050;2023-07-16T15:23:10;3.73;;;2.80;;
5702;SDS011;2876;51.738;10.050;2023-07-16T15:29:12;6.23;;;3.00;;
5702;SDS011;2876;51.738;10.050;2023-07-16T15:35:14;3.10;;;2.80;;
5702;SDS011;2876;51.738;10.050;2023-07-16T15:41:17;4.50;;;3.33;;
5702;SDS011;2876;51.738;10.050;2023-07-16T15:47:26;3.23;;;2.93;;
5702;SDS011;2876;51.738;10.050;2023-07-16T15:53:28;4.70;;;3.20;;
5702;SDS011;2876;51.738;10.050;2023-07-16T15:59:30;5.70;;;3.37;;
5702;SDS011;2876;51.738;10.050;2023-07-16T16:05:32;4.30;;;3.47;;
5702;SDS011;2876;51.738;10.050;2023-07-16T16:11:34;6.17;;;3.43;;
5702;SDS011;2876;51.738;10.050;2023-07-16T16:17:36;4.43;;;3.37;;
5702;SDS011;2876;51.738;10.050;2023-07-16T16:23:40;6.97;;;4.90;;
5702;SDS011;2876;51.738;10.050;2023-07-16T16:29:42;7.83;;;4.30;;
5702;SDS011;2876;51.738;10.050;2023-07-16T16:35:44;4.63;;;3.60;;
5702;SDS011;2876;51.738;10.050;2023-07-16T16:41:46;11.30;;;8.93;;
5702;SDS011;2876;51.738;10.050;2023-07-16T16:47:49;4.77;;;3.77;;
5702;SDS011;2876;51.738;10.050;2023-07-16T16:53:51;8.40;;;4.50;;
5702;SDS011;2876;51.738;10.050;2023-07-16T16:59:53;5.50;;;4.03;;
5702;SDS011;2876;51.738;10.050;2023-07-16T17:05:55;3.83;;;3.40;;
5702;SDS011;2876;51.738;10.050;2023-07-16T17:12:03;5.63;;;3.67;;
5702;SDS011;2876;51.738;10.050;2023-07-16T17:18:06;5.60;;;4.07;;
5702;SDS011;2876;51.738;10.050;2023-07-16T17:24:10;8.03;;;4.00;;
5702;SDS011;2876;51.738;10.050;2023-07-16T17:30:13;5.13;;;3.53;;
5702;SDS011;2876;51.738;10.050;2023-07-16T17:36:17;5.67;;;3.87;;
5702;SDS011;2876;51.738;10.050;2023-07-16T17:42:19;6.93;;;3.70;;
5702;SDS011;2876;51.738;10.050;2023-07-16T17:48:25;6.40;;;3.90;;
5702;SDS011;2876;51.738;10.050;2023-07-16T17:54:27;5.10;;;3.30;;
5702;SDS011;2876;51.738;10.050;2023-07-16T18:00:29;5.80;;;3.13;;
5702;SDS011;2876;51.738;10.050;2023-07-16T18:06:31;4.40;;;3.60;;
5702;SDS011;2876;51.738;10.050;2023-07-16T18:12:33;8.57;;;4.50;;
5702;SDS011;2876;51.738;10.050;2023-07-16T18:18:35;4.77;;;3.80;;
5702;SDS011;2876;51.738;10.050;2023-07-16T18:24:38;8.70;;;4.20;;
5702;SDS011;2876;51.738;10.050;2023-07-16T18:30:42;3.90;;;3.50;;
5702;SDS011;2876;51.738;10.050;2023-07-16T18:36:44;7.83;;;4.20;;
5702;SDS011;2876;51.738;10.050;2023-07-16T18:42:46;9.70;;;6.40;;
5702;SDS011;2876;51.738;10.050;2023-07-16T18:48:48;5.83;;;4.77;;
5702;SDS011;2876;51.738;10.050;2023-07-16T18:54:50;6.60;;;3.90;;
5702;SDS011;2876;51.738;10.050;2023-07-16T19:00:53;5.87;;;3.70;;
5702;SDS011;2876;51.738;10.050;2023-07-16T19:06:56;8.40;;;5.00;;
5702;SDS011;2876;51.738;10.050;2023-07-16T19:12:58;6.70;;;4.10;;
5702;SDS011;2876;51.738;10.050;2023-07-16T19:19:02;5.20;;;3.83;;
5702;SDS011;2876;51.738;10.050;2023-07-16T19:25:04;5.83;;;4.07;;
5702;SDS011;2876;51.738;10.050;2023-07-16T19:31:07;4.73;;;3.43;;
5702;SDS011;2876;51.738;10.050;2023-07-16T19:37:09;6.87;;;4.40;;
5702;SDS011;2876;51.738;10.050;2023-07-16T19:43:12;5.23;;;3.53;;
5702;SDS011;2876;51.738;10.050;2023-07-16T19:49:17;7.87;;;4.03;;
5702;SDS011;2876;51.738;10.050;2023-07-16T19:55:19;4.37;;;3.80;;
5702;SDS011;2876;51.738;10.050;2023-07-16T20:01:21;7.40;;;4.37;;
5702;SDS011;2876;51.738;10.050;2023-07-16T20:07:23;4.90;;;3.97;;
5702;SDS011;2876;51.738;10.050;2023-07-16T20:13:25;6.43;;;4.20;;
5702;SDS011;2876;51.738;10.050;2023-07-16T20:19:27;11.10;;;5.50;;
5702;SDS011;2876;51.738;10.050;2023-07-16T20:25:32;5.80;;;4.27;;
5702;SDS011;2876;51.738;10.050;2023-07-16T20:31:33;10.20;;;5.90;;
5702;SDS011;2876;51.738;10.050;2023-07-16T20:37:37;16.60;;;7.10;;
5702;SDS011;2876;51.738;10.050;2023-07-16T20:43:39;6.23;;;4.40;;
5702;SDS011;2876;51.738;10.050;2023-07-16T20:49:42;8.57;;;4.60;;
5702;SDS011;2876;51.738;10.050;2023-07-16T20:55:44;5.87;;;4.07;;
5702;SDS011;2876;51.738;10.050;2023-07-16T21:01:46;8.57;;;4.53;;
5702;SDS011;2876;51.738;10.050;2023-07-16T21:07:48;6.20;;;4.03;;
5702;SDS011;2876;51.738;10.050;2023-07-16T21:13:50;7.03;;;4.00;;
5702;SDS011;2876;51.738;10.050;2023-07-16T21:19:52;6.00;;;4.03;;
5702;SDS011;2876;51.738;10.050;2023-07-16T21:25:55;5.47;;;4.30;;
5702;SDS011;2876;51.738;10.050;2023-07-16T21:31:57;7.03;;;5.10;;
5702;SDS011;2876;51.738;10.050;2023-07-16T21:37:59;6.03;;;4.50;;
5702;SDS011;2876;51.738;10.050;2023-07-16T21:44:01;5.83;;;4.30;;
5702;SDS011;2876;51.738;10.050;2023-07-16T21:50:03;10.27;;;4.70;;
5702;SDS011;2876;51.738;10.050;2023-07-16T21:56:05;5.20;;;4.10;;
5702;SDS011;2876;51.738;10.050;2023-07-16T22:02:07;9.03;;;4.20;;
5702;SDS011;2876;51.738;10.050;2023-07-16T22:08:09;5.10;;;4.00;;
5702;SDS011;2876;51.738;10.050;2023-07-16T22:14:11;10.37;;;4.80;;
5702;SDS011;2876;51.738;10.050;2023-07-16T22:20:13;8.43;;;5.67;;
5702;SDS011;2876;51.738;10.050;2023-07-16T22:26:15;8.50;;;4.73;;
5702;SDS011;2876;51.738;10.050;2023-07-16T22:32:19;6.63;;;4.87;;
5702;SDS011;2876;51.738;10.050;2023-07-16T22:38:21;14.47;;;5.87;;
5702;SDS011;2876;51.738;10.050;2023-07-16T22:44:23;5.10;;;4.23;;
5702;SDS011;2876;51.738;10.050;2023-07-16T22:50:25;5.27;;;4.07;;
5702;SDS011;2876;51.738;10.050;2023-07-16T22:56:27;6.63;;;4.50;;
5702;SDS011;2876;51.738;10.050;2023-07-16T23:02:29;8.83;;;5.13;;
5702;SDS011;2876;51.738;10.050;2023-07-16T23:08:31;8.80;;;4.97;;
5702;SDS011;2876;51.738;10.050;2023-07-16T23:14:33;6.17;;;4.50;;
5702;SDS011;2876;51.738;10.050;2023-07-16T23:20:37;9.30;;;5.27;;
5702;SDS011;2876;51.738;10.050;2023-07-16T23:26:39;12.17;;;5.67;;
5702;SDS011;2876;51.738;10.050;2023-07-16T23:32:41;7.77;;;5.50;;
5702;SDS011;2876;51.738;10.050;2023-07-16T23:38:43;12.00;;;5.40;;
5702;SDS011;2876;51.738;10.050;2023-07-16T23:44:45;6.53;;;5.07;;
5702;SDS011;2876;51.738;10.050;2023-07-16T23:50:47;6.87;;;5.07;;
5702;SDS011;2876;51.738;10.050;2023-07-16T23:56:49;8.40;;;5.70;;
